Hmcs Ottawa — CGAL — position and weather

sailwx.info

Track history (hours):
 
Tides and Currents Weather Stations Pressure Air Temp Water Temp Dewpoint Dewpoint Depression Visibility Wind Speed Wind Dir Waves Ship Positions

Hmcs Ottawa

Last reported at 2018-Jan-29 13:28 UTC. Time now 2018-Feb-23 04:38 UTC.
Position N 48°19' W 123°20'.
Warning: this ship's position is 24 days out of date.

; draft 7.4 m.

Type: Military. MMSI: 316195000.

Date/timePositionNaut miles runAvg speedWind from/ knotsBaromVisibWave heightAir tempDewpointWater temp
2018-Jan-29 13:28N 48°19' W 123°20'4 0.2
2018-Jan-28 16:09N 48°21' W 123°25'215.2
2018-Jan-28 16:00N 48°20' W 123°22'0 1.0
2018-Jan-28 15:30N 48°19' W 123°21'1 1.9
2018-Jan-28 15:00N 48°18' W 123°21'1 1.2
2018-Jan-28 14:30N 48°19' W 123°21'3 5.3
2018-Jan-28 14:01N 48°19' W 123°17'2 3.3
2018-Jan-28 13:30N 48°19' W 123°20'1 2.0
2018-Jan-28 13:00N 48°19' W 123°21'3 5.1
2018-Jan-28 12:30N 48°19' W 123°17'1 1.5
2018-Jan-28 12:00N 48°19' W 123°18'2 4.1
2018-Jan-28 11:30N 48°19' W 123°21'2 4.3
2018-Jan-28 11:00N 48°19' W 123°18'1 1.6
2018-Jan-28 10:30N 48°19' W 123°17'2 2.3
2018-Jan-28 09:45N 48°19' W 123°20'1 3.6
2018-Jan-28 09:30N 48°19' W 123°18'1 2.7
2018-Jan-28 09:00N 48°19' W 123°16'3 4.9
2018-Jan-28 08:29N 48°19' W 123°20'1 2.7
2018-Jan-28 08:00N 48°19' W 123°18'2 3.2
2018-Jan-28 07:29N 48°19' W 123°16'1 2.1
2018-Jan-28 07:00N 48°20' W 123°15'1 2.8
2018-Jan-28 06:29N 48°19' W 123°17'2 4.6
2018-Jan-28 05:58N 48°21' W 123°14'4 8.8
2018-Jan-28 05:30N 48°25' W 123°12'4 9.0
2018-Jan-28 05:00N 48°29' W 123°12'510.9
2018-Jan-28 04:30N 48°35' W 123°14'612.1
2018-Jan-28 04:00N 48°40' W 123°15'5 9.9
2018-Jan-28 03:30N 48°44' W 123°10'611.2
2018-Jan-28 02:58N 48°47' W 123°02'4 9.3
2018-Jan-28 02:30N 48°51' W 123°03'918.8
2018-Jan-28 02:00N 48°57' W 123°14'918.2
2018-Jan-28 01:31N 49°04' W 123°24'1018.9
2018-Jan-28 01:00N 49°13' W 123°21'816.3
2018-Jan-28 00:31N 49°19' W 123°13'5 9.6
2018-Jan-28 00:00N 49°18' W 123°06'1 1.3
2018-Jan-27 23:30N 49°17' W 123°07'0 0.0
2018-Jan-27 23:00N 49°17' W 123°07'2 4.9
2018-Jan-27 22:30N 49°19' W 123°09'815.5
2018-Jan-27 22:00N 49°18' W 123°21'1 1.7
2018-Jan-27 21:30N 49°18' W 123°23'1 1.8
2018-Jan-27 21:00N 49°18' W 123°24'1 2.0
2018-Jan-27 20:30N 49°18' W 123°23'612.8
2018-Jan-27 20:00N 49°24' W 123°18'1 1.4
2018-Jan-27 19:30N 49°23' W 123°17'4 7.6
2018-Jan-27 19:00N 49°19' W 123°16'510.4
2018-Jan-27 18:30N 49°19' W 123°08'2 3.9
2018-Jan-27 18:01N 49°17' W 123°07'0 0.0
2018-Jan-27 17:31N 49°17' W 123°07'0 0.0
2018-Jan-27 17:01N 49°17' W 123°07'0 0.0
2018-Jan-27 16:31N 49°17' W 123°07'0 0.0
2018-Jan-27 16:00N 49°17' W 123°07'0 0.0
2018-Jan-27 15:30N 49°17' W 123°07'0 0.0
2018-Jan-26 17:27N 49°17' W 123°07'1 1.4
2018-Jan-26 17:00N 49°18' W 123°06'5 9.2
2018-Jan-26 16:30N 49°19' W 123°13'714.6
2018-Jan-26 16:00N 49°18' W 123°24'816.0
2018-Jan-26 15:29N 49°18' W 123°37'915.5
2018-Jan-26 14:54N 49°18' W 123°51'1 0.4
2018-Jan-26 12:13N 49°19' W 123°50'1 4.6
2018-Jan-26 11:58N 49°20' W 123°50'12 1.9
2018-Jan-26 05:50N 49°12' W 123°37'412.4
2018-Jan-26 05:30N 49°10' W 123°31'612.5
2018-Jan-26 05:00N 49°06' W 123°24'713.7
2018-Jan-26 04:30N 49°02' W 123°16'918.0
2018-Jan-26 04:00N 48°55' W 123°06'816.7
2018-Jan-26 03:30N 48°48' W 122°60'510.6
2018-Jan-26 03:00N 48°45' W 123°05'510.3
2018-Jan-26 02:30N 48°42' W 123°13'4 8.2
2018-Jan-26 02:00N 48°38' W 123°14'5 9.8
2018-Jan-26 01:30N 48°34' W 123°12'713.8
2018-Jan-26 01:00N 48°27' W 123°10'4 8.5
2018-Jan-26 00:30N 48°23' W 123°13'710.3
2018-Jan-25 23:50N 48°22' W 123°24'3 1.6
2018-Jan-25 21:56N 48°24' W 123°28'711.9
2018-Jan-25 21:20N 48°19' W 123°19'0 0.5
2018-Jan-25 20:45N 48°19' W 123°19'1 0.7
2018-Jan-25 19:43N 48°19' W 123°20'2 5.4
2018-Jan-25 19:18N 48°19' W 123°17'5 5.5
2018-Jan-25 18:24N 48°21' W 123°23'510.3
2018-Jan-25 17:54N 48°26' W 123°27'1 0.4
2018-Jan-25 16:28N 48°26' W 123°26'3 6.1
2018-Jan-25 15:56N 48°23' W 123°27'3 3.2
2018-Jan-25 14:57N 48°20' W 123°24'4 7.3
2018-Jan-25 14:27N 48°19' W 123°20'2 4.0
2018-Jan-25 13:57N 48°19' W 123°17'2 3.7
2018-Jan-25 13:28N 48°19' W 123°20'1 2.2
2018-Jan-25 12:59N 48°19' W 123°21'3 5.3
2018-Jan-25 12:28N 48°19' W 123°17'1 1.6
2018-Jan-25 12:00N 48°19' W 123°18'2 3.6
2018-Jan-25 11:29N 48°18' W 123°21'3 5.7
2018-Jan-25 11:00N 48°19' W 123°17'1 1.2
2018-Jan-25 10:30N 48°19' W 123°18'2 4.4
2018-Jan-25 10:00N 48°19' W 123°21'3 5.2
2018-Jan-25 09:28N 48°18' W 123°17'1 2.0
2018-Jan-25 09:00N 48°19' W 123°18'1 1.4
2018-Jan-25 08:30N 48°18' W 123°19'2 3.3
2018-Jan-25 08:00N 48°18' W 123°17'3 5.5
2018-Jan-25 07:27N 48°18' W 123°21'1 1.8
2018-Jan-25 06:59N 48°19' W 123°20'2 4.0
2018-Jan-25 06:30N 48°19' W 123°18'1 2.1
2018-Jan-25 06:00N 48°19' W 123°16'2 1.2
2018-Jan-25 04:34N 48°19' W 123°19'0 3.1
2018-Jan-25 04:30N 48°19' W 123°18'4 7.8
2018-Jan-25 04:00N 48°22' W 123°14'4 8.8
2018-Jan-25 03:30N 48°26' W 123°12'510.2
2018-Jan-25 03:00N 48°31' W 123°13'610.7
2018-Jan-25 02:27N 48°37' W 123°14'510.5
2018-Jan-25 01:59N 48°41' W 123°16'510.3
2018-Jan-25 01:30N 48°45' W 123°20'6 9.0
2018-Jan-25 00:51N 48°51' W 123°24'514.4
2018-Jan-25 00:30N 48°54' W 123°30'4 7.5
2018-Jan-25 00:01N 48°56' W 123°34'713.4
2018-Jan-24 23:30N 48°52' W 123°27'2 4.0
2018-Jan-24 23:00N 48°54' W 123°27'5 9.5
2018-Jan-24 22:30N 48°57' W 123°33'3 5.3
2018-Jan-24 22:00N 48°59' W 123°35'2 3.5
2018-Jan-24 21:30N 48°58' W 123°34'611.4
2018-Jan-24 21:00N 48°54' W 123°27'611.3
2018-Jan-24 20:30N 48°50' W 123°21'510.0
2018-Jan-24 20:00N 48°45' W 123°19'510.2
2018-Jan-24 19:29N 48°43' W 123°11'611.4
2018-Jan-24 18:59N 48°46' W 123°03'4 8.9
2018-Jan-24 18:30N 48°50' W 123°03'815.7
2018-Jan-24 18:01N 48°56' W 123°12'714.6
2018-Jan-24 17:30N 49°01' W 123°20'713.8
2018-Jan-24 16:59N 49°06' W 123°28'4 8.1
2018-Jan-24 16:30N 49°09' W 123°32'713.6
2018-Jan-24 15:59N 49°13' W 123°40'711.7
2018-Jan-24 15:25N 49°16' W 123°49'4 3.2
2018-Jan-24 14:09N 49°18' W 123°55'4 1.2
2018-Jan-24 10:56N 49°16' W 123°50'10 1.7
2018-Jan-24 05:08N 49°13' W 123°36'217.9
2018-Jan-24 05:01N 49°12' W 123°33'918.1
2018-Jan-24 04:31N 49°05' W 123°23'917.7
2018-Jan-24 04:01N 48°60' W 123°13'713.5
2018-Jan-24 03:30N 48°55' W 123°06'712.9
2018-Jan-24 02:59N 48°49' W 122°60'511.1
2018-Jan-24 02:30N 48°45' W 123°05'611.1
2018-Jan-24 02:00N 48°42' W 123°12'4 8.7
2018-Jan-24 01:30N 48°38' W 123°14'510.8
2018-Jan-24 01:00N 48°33' W 123°12'815.6
2018-Jan-24 00:30N 48°25' W 123°10'2718.8
2018-Jan-23 23:04N 48°14' W 123°47'223.8
2018-Jan-23 23:00N 48°14' W 123°49'1223.9
2018-Jan-23 22:30N 48°17' W 124°06'5 9.9
2018-Jan-23 22:00N 48°22' W 124°05'0 0.8
2018-Jan-23 21:30N 48°22' W 124°04'1 2.6
2018-Jan-23 21:00N 48°23' W 124°05'816.0
2018-Jan-23 20:30N 48°19' W 123°55'23 5.2
2018-Jan-23 16:05N 48°19' W 123°21'0 4.1
2018-Jan-23 15:58N 48°19' W 123°21'1 1.3
2018-Jan-23 14:54N 48°19' W 123°19'2 3.8
2018-Jan-23 14:30N 48°19' W 123°17'0 0.6
2018-Jan-23 14:01N 48°19' W 123°17'2 4.6
2018-Jan-23 13:30N 48°19' W 123°20'1 2.0
2018-Jan-23 13:01N 48°19' W 123°19'2 4.1
2018-Jan-23 12:30N 48°19' W 123°16'0 0.5
2018-Jan-23 11:59N 48°19' W 123°15'2 4.6
2018-Jan-23 11:30N 48°19' W 123°19'1 2.5
2018-Jan-23 11:00N 48°19' W 123°17'2 3.0
2018-Jan-23 10:30N 48°19' W 123°19'2 4.1
2018-Jan-23 10:00N 48°19' W 123°22'3 5.8
2018-Jan-23 09:30N 48°18' W 123°18'1 2.6
2018-Jan-23 09:00N 48°19' W 123°16'2 3.1
2018-Jan-23 08:30N 48°19' W 123°18'1 2.9
2018-Jan-23 08:00N 48°19' W 123°21'2 4.0
2018-Jan-23 07:30N 48°19' W 123°18'2 3.2
2018-Jan-23 07:00N 48°19' W 123°20'2 3.2
2018-Jan-23 06:31N 48°19' W 123°22'4 5.8
2018-Jan-23 05:46N 48°18' W 123°16'1 5.1
2018-Jan-23 05:30N 48°19' W 123°15'2426.1
2018-Jan-23 04:37N 48°13' W 123°49'330.5
2018-Jan-23 04:30N 48°13' W 123°54'1325.8
2018-Jan-23 04:00N 48°18' W 124°11'5 9.4
2018-Jan-23 03:30N 48°20' W 124°05'3012.9
2018-Jan-23 01:12N 48°18' W 123°20'1 1.2
2018-Jan-23 00:04N 48°20' W 123°19'2 5.9
2018-Jan-22 23:42N 48°19' W 123°16'0 2.1
2018-Jan-22 23:28N 48°19' W 123°16'0 0.4
2018-Jan-22 22:47N 48°19' W 123°17'1 3.5
2018-Jan-22 22:30N 48°18' W 123°16'0 0.5
2018-Jan-22 21:53N 48°18' W 123°17'1 0.3
2018-Jan-22 17:38N 48°19' W 123°16'0 2.9
2018-Jan-22 17:30N 48°19' W 123°16'5 9.7
2018-Jan-22 16:57N 48°21' W 123°23'  
Track history (hours):
 
Tides and Currents Weather Stations Pressure Air Temp Water Temp Dewpoint Dewpoint Depression Visibility Wind Speed Wind Dir Waves Ship Positions

Hmcs Ottawa

Last reported at 2018-Jan-29 13:28 UTC. Time now 2018-Feb-23 04:38 UTC.
Position N 48°19' W 123°20'.
Warning: this ship's position is 24 days out of date.

; draft 7.4 m.

Type: Military. MMSI: 316195000.

Date/timePositionNaut miles runAvg speedWind from/ knotsBaromVisibWave heightAir tempDewpointWater temp
2018-Jan-29 13:28N 48°19' W 123°20'4 0.2
2018-Jan-28 16:09N 48°21' W 123°25'215.2
2018-Jan-28 16:00N 48°20' W 123°22'0 1.0
2018-Jan-28 15:30N 48°19' W 123°21'1 1.9
2018-Jan-28 15:00N 48°18' W 123°21'1 1.2
2018-Jan-28 14:30N 48°19' W 123°21'3 5.3
2018-Jan-28 14:01N 48°19' W 123°17'2 3.3
2018-Jan-28 13:30N 48°19' W 123°20'1 2.0
2018-Jan-28 13:00N 48°19' W 123°21'3 5.1
2018-Jan-28 12:30N 48°19' W 123°17'1 1.5
2018-Jan-28 12:00N 48°19' W 123°18'2 4.1
2018-Jan-28 11:30N 48°19' W 123°21'2 4.3
2018-Jan-28 11:00N 48°19' W 123°18'1 1.6
2018-Jan-28 10:30N 48°19' W 123°17'2 2.3
2018-Jan-28 09:45N 48°19' W 123°20'1 3.6
2018-Jan-28 09:30N 48°19' W 123°18'1 2.7
2018-Jan-28 09:00N 48°19' W 123°16'3 4.9
2018-Jan-28 08:29N 48°19' W 123°20'1 2.7
2018-Jan-28 08:00N 48°19' W 123°18'2 3.2
2018-Jan-28 07:29N 48°19' W 123°16'1 2.1
2018-Jan-28 07:00N 48°20' W 123°15'1 2.8
2018-Jan-28 06:29N 48°19' W 123°17'2 4.6
2018-Jan-28 05:58N 48°21' W 123°14'4 8.8
2018-Jan-28 05:30N 48°25' W 123°12'4 9.0
2018-Jan-28 05:00N 48°29' W 123°12'510.9
2018-Jan-28 04:30N 48°35' W 123°14'612.1
2018-Jan-28 04:00N 48°40' W 123°15'5 9.9
2018-Jan-28 03:30N 48°44' W 123°10'611.2
2018-Jan-28 02:58N 48°47' W 123°02'4 9.3
2018-Jan-28 02:30N 48°51' W 123°03'918.8
2018-Jan-28 02:00N 48°57' W 123°14'918.2
2018-Jan-28 01:31N 49°04' W 123°24'1018.9
2018-Jan-28 01:00N 49°13' W 123°21'816.3
2018-Jan-28 00:31N 49°19' W 123°13'5 9.6
2018-Jan-28 00:00N 49°18' W 123°06'1 1.3
2018-Jan-27 23:30N 49°17' W 123°07'0 0.0
2018-Jan-27 23:00N 49°17' W 123°07'2 4.9
2018-Jan-27 22:30N 49°19' W 123°09'815.5
2018-Jan-27 22:00N 49°18' W 123°21'1 1.7
2018-Jan-27 21:30N 49°18' W 123°23'1 1.8
2018-Jan-27 21:00N 49°18' W 123°24'1 2.0
2018-Jan-27 20:30N 49°18' W 123°23'612.8
2018-Jan-27 20:00N 49°24' W 123°18'1 1.4
2018-Jan-27 19:30N 49°23' W 123°17'4 7.6
2018-Jan-27 19:00N 49°19' W 123°16'510.4
2018-Jan-27 18:30N 49°19' W 123°08'2 3.9
2018-Jan-27 18:01N 49°17' W 123°07'0 0.0
2018-Jan-27 17:31N 49°17' W 123°07'0 0.0
2018-Jan-27 17:01N 49°17' W 123°07'0 0.0
2018-Jan-27 16:31N 49°17' W 123°07'0 0.0
2018-Jan-27 16:00N 49°17' W 123°07'0 0.0
2018-Jan-27 15:30N 49°17' W 123°07'0 0.0
2018-Jan-26 17:27N 49°17' W 123°07'1 1.4
2018-Jan-26 17:00N 49°18' W 123°06'5 9.2
2018-Jan-26 16:30N 49°19' W 123°13'714.6
2018-Jan-26 16:00N 49°18' W 123°24'816.0
2018-Jan-26 15:29N 49°18' W 123°37'915.5
2018-Jan-26 14:54N 49°18' W 123°51'1 0.4
2018-Jan-26 12:13N 49°19' W 123°50'1 4.6
2018-Jan-26 11:58N 49°20' W 123°50'12 1.9
2018-Jan-26 05:50N 49°12' W 123°37'412.4
2018-Jan-26 05:30N 49°10' W 123°31'612.5
2018-Jan-26 05:00N 49°06' W 123°24'713.7
2018-Jan-26 04:30N 49°02' W 123°16'918.0
2018-Jan-26 04:00N 48°55' W 123°06'816.7
2018-Jan-26 03:30N 48°48' W 122°60'510.6
2018-Jan-26 03:00N 48°45' W 123°05'510.3
2018-Jan-26 02:30N 48°42' W 123°13'4 8.2
2018-Jan-26 02:00N 48°38' W 123°14'5 9.8
2018-Jan-26 01:30N 48°34' W 123°12'713.8
2018-Jan-26 01:00N 48°27' W 123°10'4 8.5
2018-Jan-26 00:30N 48°23' W 123°13'710.3
2018-Jan-25 23:50N 48°22' W 123°24'3 1.6
2018-Jan-25 21:56N 48°24' W 123°28'711.9
2018-Jan-25 21:20N 48°19' W 123°19'0 0.5
2018-Jan-25 20:45N 48°19' W 123°19'1 0.7
2018-Jan-25 19:43N 48°19' W 123°20'2 5.4
2018-Jan-25 19:18N 48°19' W 123°17'5 5.5
2018-Jan-25 18:24N 48°21' W 123°23'510.3
2018-Jan-25 17:54N 48°26' W 123°27'1 0.4
2018-Jan-25 16:28N 48°26' W 123°26'3 6.1
2018-Jan-25 15:56N 48°23' W 123°27'3 3.2
2018-Jan-25 14:57N 48°20' W 123°24'4 7.3
2018-Jan-25 14:27N 48°19' W 123°20'2 4.0
2018-Jan-25 13:57N 48°19' W 123°17'2 3.7
2018-Jan-25 13:28N 48°19' W 123°20'1 2.2
2018-Jan-25 12:59N 48°19' W 123°21'3 5.3
2018-Jan-25 12:28N 48°19' W 123°17'1 1.6
2018-Jan-25 12:00N 48°19' W 123°18'2 3.6
2018-Jan-25 11:29N 48°18' W 123°21'3 5.7
2018-Jan-25 11:00N 48°19' W 123°17'1 1.2
2018-Jan-25 10:30N 48°19' W 123°18'2 4.4
2018-Jan-25 10:00N 48°19' W 123°21'3 5.2
2018-Jan-25 09:28N 48°18' W 123°17'1 2.0
2018-Jan-25 09:00N 48°19' W 123°18'1 1.4
2018-Jan-25 08:30N 48°18' W 123°19'2 3.3
2018-Jan-25 08:00N 48°18' W 123°17'3 5.5
2018-Jan-25 07:27N 48°18' W 123°21'1 1.8
2018-Jan-25 06:59N 48°19' W 123°20'2 4.0
2018-Jan-25 06:30N 48°19' W 123°18'1 2.1
2018-Jan-25 06:00N 48°19' W 123°16'2 1.2
2018-Jan-25 04:34N 48°19' W 123°19'0 3.1
2018-Jan-25 04:30N 48°19' W 123°18'4 7.8
2018-Jan-25 04:00N 48°22' W 123°14'4 8.8
2018-Jan-25 03:30N 48°26' W 123°12'510.2
2018-Jan-25 03:00N 48°31' W 123°13'610.7
2018-Jan-25 02:27N 48°37' W 123°14'510.5
2018-Jan-25 01:59N 48°41' W 123°16'510.3
2018-Jan-25 01:30N 48°45' W 123°20'6 9.0
2018-Jan-25 00:51N 48°51' W 123°24'514.4
2018-Jan-25 00:30N 48°54' W 123°30'4 7.5
2018-Jan-25 00:01N 48°56' W 123°34'713.4
2018-Jan-24 23:30N 48°52' W 123°27'2 4.0
2018-Jan-24 23:00N 48°54' W 123°27'5 9.5
2018-Jan-24 22:30N 48°57' W 123°33'3 5.3
2018-Jan-24 22:00N 48°59' W 123°35'2 3.5
2018-Jan-24 21:30N 48°58' W 123°34'611.4
2018-Jan-24 21:00N 48°54' W 123°27'611.3
2018-Jan-24 20:30N 48°50' W 123°21'510.0
2018-Jan-24 20:00N 48°45' W 123°19'510.2
2018-Jan-24 19:29N 48°43' W 123°11'611.4
2018-Jan-24 18:59N 48°46' W 123°03'4 8.9
2018-Jan-24 18:30N 48°50' W 123°03'815.7
2018-Jan-24 18:01N 48°56' W 123°12'714.6
2018-Jan-24 17:30N 49°01' W 123°20'713.8
2018-Jan-24 16:59N 49°06' W 123°28'4 8.1
2018-Jan-24 16:30N 49°09' W 123°32'713.6
2018-Jan-24 15:59N 49°13' W 123°40'711.7
2018-Jan-24 15:25N 49°16' W 123°49'4 3.2
2018-Jan-24 14:09N 49°18' W 123°55'4 1.2
2018-Jan-24 10:56N 49°16' W 123°50'10 1.7
2018-Jan-24 05:08N 49°13' W 123°36'217.9
2018-Jan-24 05:01N 49°12' W 123°33'918.1
2018-Jan-24 04:31N 49°05' W 123°23'917.7
2018-Jan-24 04:01N 48°60' W 123°13'713.5
2018-Jan-24 03:30N 48°55' W 123°06'712.9
2018-Jan-24 02:59N 48°49' W 122°60'511.1
2018-Jan-24 02:30N 48°45' W 123°05'611.1
2018-Jan-24 02:00N 48°42' W 123°12'4 8.7
2018-Jan-24 01:30N 48°38' W 123°14'510.8
2018-Jan-24 01:00N 48°33' W 123°12'815.6
2018-Jan-24 00:30N 48°25' W 123°10'2718.8
2018-Jan-23 23:04N 48°14' W 123°47'223.8
2018-Jan-23 23:00N 48°14' W 123°49'1223.9
2018-Jan-23 22:30N 48°17' W 124°06'5 9.9
2018-Jan-23 22:00N 48°22' W 124°05'0 0.8
2018-Jan-23 21:30N 48°22' W 124°04'1 2.6
2018-Jan-23 21:00N 48°23' W 124°05'816.0
2018-Jan-23 20:30N 48°19' W 123°55'23 5.2
2018-Jan-23 16:05N 48°19' W 123°21'0 4.1
2018-Jan-23 15:58N 48°19' W 123°21'1 1.3
2018-Jan-23 14:54N 48°19' W 123°19'2 3.8
2018-Jan-23 14:30N 48°19' W 123°17'0 0.6
2018-Jan-23 14:01N 48°19' W 123°17'2 4.6
2018-Jan-23 13:30N 48°19' W 123°20'1 2.0
2018-Jan-23 13:01N 48°19' W 123°19'2 4.1
2018-Jan-23 12:30N 48°19' W 123°16'0 0.5
2018-Jan-23 11:59N 48°19' W 123°15'2 4.6
2018-Jan-23 11:30N 48°19' W 123°19'1 2.5
2018-Jan-23 11:00N 48°19' W 123°17'2 3.0
2018-Jan-23 10:30N 48°19' W 123°19'2 4.1
2018-Jan-23 10:00N 48°19' W 123°22'3 5.8
2018-Jan-23 09:30N 48°18' W 123°18'1 2.6
2018-Jan-23 09:00N 48°19' W 123°16'2 3.1
2018-Jan-23 08:30N 48°19' W 123°18'1 2.9
2018-Jan-23 08:00N 48°19' W 123°21'2 4.0
2018-Jan-23 07:30N 48°19' W 123°18'2 3.2
2018-Jan-23 07:00N 48°19' W 123°20'2 3.2
2018-Jan-23 06:31N 48°19' W 123°22'4 5.8
2018-Jan-23 05:46N 48°18' W 123°16'1 5.1
2018-Jan-23 05:30N 48°19' W 123°15'2426.1
2018-Jan-23 04:37N 48°13' W 123°49'330.5
2018-Jan-23 04:30N 48°13' W 123°54'1325.8
2018-Jan-23 04:00N 48°18' W 124°11'5 9.4
2018-Jan-23 03:30N 48°20' W 124°05'3012.9
2018-Jan-23 01:12N 48°18' W 123°20'1 1.2
2018-Jan-23 00:04N 48°20' W 123°19'2 5.9
2018-Jan-22 23:42N 48°19' W 123°16'0 2.1
2018-Jan-22 23:28N 48°19' W 123°16'0 0.4
2018-Jan-22 22:47N 48°19' W 123°17'1 3.5
2018-Jan-22 22:30N 48°18' W 123°16'0 0.5
2018-Jan-22 21:53N 48°18' W 123°17'1 0.3
2018-Jan-22 17:38N 48°19' W 123°16'0 2.9
2018-Jan-22 17:30N 48°19' W 123°16'5 9.7
2018-Jan-22 16:57N 48°21' W 123°23'  

Dump ship's entire track history